sensor_id;sensor_type;location;lat;lon;timestamp;pressure;altitude;pressure_sealevel;temperature;humidity
59240;BME280;45010;53.640;10.578;2022-10-31T00:01:54;101205.06;;;26.05;45.91
59240;BME280;45010;53.640;10.578;2022-10-31T00:04:54;101202.97;;;26.07;45.07
59240;BME280;45010;53.640;10.578;2022-10-31T00:07:55;101184.22;;;25.95;45.76
59240;BME280;45010;53.640;10.578;2022-10-31T00:10:55;101119.09;;;25.54;45.31
59240;BME280;45010;53.640;10.578;2022-10-31T00:13:57;101056.81;;;25.10;45.52
59240;BME280;45010;53.640;10.578;2022-10-31T00:16:57;101212.03;;;26.06;45.49
59240;BME280;45010;53.640;10.578;2022-10-31T00:19:57;101205.06;;;26.05;45.67
59240;BME280;45010;53.640;10.578;2022-10-31T00:22:59;101196.91;;;26.00;45.59
59240;BME280;45010;53.640;10.578;2022-10-31T00:26:03;101205.50;;;26.02;45.40
59240;BME280;45010;53.640;10.578;2022-10-31T00:29:04;101212.59;;;26.08;45.44
59240;BME280;45010;53.640;10.578;2022-10-31T00:32:04;101215.28;;;26.08;45.52
59240;BME280;45010;53.640;10.578;2022-10-31T00:35:05;101212.59;;;26.08;45.52
59240;BME280;45010;53.640;10.578;2022-10-31T00:38:05;101222.25;;;26.09;45.62
59240;BME280;45010;53.640;10.578;2022-10-31T00:41:06;101207.00;;;25.98;45.61
59240;BME280;45010;53.640;10.578;2022-10-31T00:44:06;101225.53;;;26.11;45.51
59240;BME280;45010;53.640;10.578;2022-10-31T00:47:06;101222.84;;;26.11;45.89
59240;BME280;45010;53.640;10.578;2022-10-31T00:50:07;101212.47;;;26.03;45.23
59240;BME280;45010;53.640;10.578;2022-10-31T00:53:08;101222.84;;;26.11;45.48
59240;BME280;45010;53.640;10.578;2022-10-31T00:56:09;101195.16;;;25.94;45.45
59240;BME280;45010;53.640;10.578;2022-10-31T00:59:09;101226.09;;;26.13;45.34
59240;BME280;45010;53.640;10.578;2022-10-31T01:02:09;101222.59;;;26.13;45.27
59240;BME280;45010;53.640;10.578;2022-10-31T01:05:10;101202.25;;;26.00;45.21
59240;BME280;45010;53.640;10.578;2022-10-31T01:08:10;101225.88;;;26.15;45.07
59240;BME280;45010;53.640;10.578;2022-10-31T01:11:19;101230.97;;;26.16;45.00
59240;BME280;45010;53.640;10.578;2022-10-31T01:14:19;101225.88;;;26.15;44.85
59240;BME280;45010;53.640;10.578;2022-10-31T01:17:20;101220.06;;;26.18;45.29
59240;BME280;45010;53.640;10.578;2022-10-31T01:20:20;101227.28;;;26.17;45.45
59240;BME280;45010;53.640;10.578;2022-10-31T01:23:20;101229.94;;;26.17;45.10
59240;BME280;45010;53.640;10.578;2022-10-31T01:26:26;101233.19;;;26.19;44.93
59240;BME280;45010;53.640;10.578;2022-10-31T01:29:26;101233.19;;;26.19;45.10
59240;BME280;45010;53.640;10.578;2022-10-31T01:32:27;101232.38;;;26.19;44.96
59240;BME280;45010;53.640;10.578;2022-10-31T01:35:28;101233.63;;;26.16;44.61
59240;BME280;45010;53.640;10.578;2022-10-31T01:38:30;101225.75;;;26.10;45.22
59240;BME280;45010;53.640;10.578;2022-10-31T01:41:33;101223.16;;;26.03;45.04
59240;BME280;45010;53.640;10.578;2022-10-31T01:47:39;101244.69;;;26.08;44.96
59240;BME280;45010;53.640;10.578;2022-10-31T01:50:42;101238.75;;;26.06;44.67
59240;BME280;45010;53.640;10.578;2022-10-31T01:53:45;101232.56;;;25.94;44.92
59240;BME280;45010;53.640;10.578;2022-10-31T01:56:50;101248.25;;;26.02;45.01
59240;BME280;45010;53.640;10.578;2022-10-31T01:59:56;101242.19;;;25.95;44.73
59240;BME280;45010;53.640;10.578;2022-10-31T02:02:57;101257.75;;;25.98;44.66
59240;BME280;45010;53.640;10.578;2022-10-31T02:05:59;101243.69;;;25.90;44.86
59240;BME280;45010;53.640;10.578;2022-10-31T02:09:00;101262.53;;;25.96;44.87
59240;BME280;45010;53.640;10.578;2022-10-31T02:12:02;101252.19;;;25.87;44.95
59240;BME280;45010;53.640;10.578;2022-10-31T02:15:04;101254.84;;;25.87;44.60
59240;BME280;45010;53.640;10.578;2022-10-31T02:18:04;101263.22;;;25.91;45.05
59240;BME280;45010;53.640;10.578;2022-10-31T02:21:25;101278.44;;;25.90;45.06
59240;BME280;45010;53.640;10.578;2022-10-31T02:24:58;101278.91;;;25.87;44.88
59240;BME280;45010;53.640;10.578;2022-10-31T02:31:45;101282.22;;;25.83;44.91
59240;BME280;45010;53.640;10.578;2022-10-31T02:35:02;101275.94;;;25.77;44.92
59240;BME280;45010;53.640;10.578;2022-10-31T02:41:51;101294.19;;;25.80;45.09
59240;BME280;45010;53.640;10.578;2022-10-31T02:45:11;101276.63;;;25.72;45.02
59240;BME280;45010;53.640;10.578;2022-10-31T02:48:18;101279.50;;;25.71;44.91
59240;BME280;45010;53.640;10.578;2022-10-31T02:51:19;101288.47;;;25.76;44.80
59240;BME280;45010;53.640;10.578;2022-10-31T02:54:25;101277.16;;;25.62;45.02
59240;BME280;45010;53.640;10.578;2022-10-31T02:57:29;101284.28;;;25.69;45.06
59240;BME280;45010;53.640;10.578;2022-10-31T03:10:42;101304.59;;;25.70;45.15
59240;BME280;45010;53.640;10.578;2022-10-31T03:13:48;101302.97;;;25.69;45.20
59240;BME280;45010;53.640;10.578;2022-10-31T03:16:52;101313.66;;;25.69;45.17
59240;BME280;45010;53.640;10.578;2022-10-31T03:19:56;101310.38;;;25.67;45.06
59240;BME280;45010;53.640;10.578;2022-10-31T03:23:01;101313.25;;;25.65;45.09
59240;BME280;45010;53.640;10.578;2022-10-31T03:26:05;101317.81;;;25.64;45.22
59240;BME280;45010;53.640;10.578;2022-10-31T03:29:08;101302.69;;;25.58;45.23
59240;BME280;45010;53.640;10.578;2022-10-31T03:32:14;101325.25;;;25.62;45.02
59240;BME280;45010;53.640;10.578;2022-10-31T03:35:19;101328.78;;;25.56;45.24
59240;BME280;45010;53.640;10.578;2022-10-31T03:38:21;101324.47;;;25.55;44.98
59240;BME280;45010;53.640;10.578;2022-10-31T03:41:26;101339.63;;;25.61;44.90
59240;BME280;45010;53.640;10.578;2022-10-31T03:44:29;101343.53;;;25.59;45.25
59240;BME280;45010;53.640;10.578;2022-10-31T03:47:31;101327.22;;;25.48;45.23
59240;BME280;45010;53.640;10.578;2022-10-31T03:51:06;101345.41;;;25.58;45.25
59240;BME280;45010;53.640;10.578;2022-10-31T03:54:27;101341.97;;;25.51;45.23
59240;BME280;45010;53.640;10.578;2022-10-31T03:57:37;101353.47;;;25.51;45.24
59240;BME280;45010;53.640;10.578;2022-10-31T04:00:44;101354.47;;;25.57;44.76
59240;BME280;45010;53.640;10.578;2022-10-31T04:03:45;101354.69;;;25.56;45.14
59240;BME280;45010;53.640;10.578;2022-10-31T04:06:47;101367.22;;;25.55;45.29
59240;BME280;45010;53.640;10.578;2022-10-31T04:09:50;101376.28;;;25.54;45.14
59240;BME280;45010;53.640;10.578;2022-10-31T04:12:56;101376.28;;;25.54;45.33
59240;BME280;45010;53.640;10.578;2022-10-31T04:15:58;101352.94;;;25.43;45.28
59240;BME280;45010;53.640;10.578;2022-10-31T04:18:59;101373.78;;;25.52;45.15
59240;BME280;45010;53.640;10.578;2022-10-31T04:21:59;101383.66;;;25.52;45.02
59240;BME280;45010;53.640;10.578;2022-10-31T04:25:00;101384.72;;;25.51;45.14
59240;BME280;45010;53.640;10.578;2022-10-31T04:28:00;101387.00;;;25.47;45.18
59240;BME280;45010;53.640;10.578;2022-10-31T04:31:00;101391.06;;;25.50;45.35
59240;BME280;45010;53.640;10.578;2022-10-31T04:34:01;101394.56;;;25.50;45.31
59240;BME280;45010;53.640;10.578;2022-10-31T04:37:01;101394.78;;;25.49;45.39
59240;BME280;45010;53.640;10.578;2022-10-31T04:40:02;101372.34;;;25.31;45.26
59240;BME280;45010;53.640;10.578;2022-10-31T04:43:03;101403.84;;;25.48;45.29
59240;BME280;45010;53.640;10.578;2022-10-31T04:46:03;101387.81;;;25.48;45.05
59240;BME280;45010;53.640;10.578;2022-10-31T04:49:04;101395.22;;;25.46;45.17
59240;BME280;45010;53.640;10.578;2022-10-31T04:52:04;101395.22;;;25.46;45.15
59240;BME280;45010;53.640;10.578;2022-10-31T04:55:05;101401.38;;;25.46;45.11
59240;BME280;45010;53.640;10.578;2022-10-31T04:58:05;101395.22;;;25.46;45.27
59240;BME280;45010;53.640;10.578;2022-10-31T05:01:06;101399.75;;;25.45;45.04
59240;BME280;45010;53.640;10.578;2022-10-31T05:04:06;101376.22;;;25.35;45.17
59240;BME280;45010;53.640;10.578;2022-10-31T05:07:06;101385.44;;;25.39;45.47
59240;BME280;45010;53.640;10.578;2022-10-31T05:10:08;101398.13;;;25.44;45.32
59240;BME280;45010;53.640;10.578;2022-10-31T05:13:10;101337.31;;;25.02;45.14
59240;BME280;45010;53.640;10.578;2022-10-31T05:16:10;101402.63;;;25.44;45.20
59240;BME280;45010;53.640;10.578;2022-10-31T05:19:10;101399.97;;;25.44;45.25
59240;BME280;45010;53.640;10.578;2022-10-31T05:22:11;101390.31;;;25.43;45.08
59240;BME280;45010;53.640;10.578;2022-10-31T05:25:11;101394.63;;;25.44;45.38
59240;BME280;45010;53.640;10.578;2022-10-31T05:28:12;101394.03;;;25.42;45.15
59240;BME280;45010;53.640;10.578;2022-10-31T05:31:12;101401.00;;;25.43;45.31
59240;BME280;45010;53.640;10.578;2022-10-31T05:34:12;101398.53;;;25.41;45.39
59240;BME280;45010;53.640;10.578;2022-10-31T05:37:12;101392.81;;;25.37;45.35
59240;BME280;45010;53.640;10.578;2022-10-31T05:40:15;101405.59;;;25.35;45.01
59240;BME280;45010;53.640;10.578;2022-10-31T05:43:15;101408.44;;;25.41;45.49
59240;BME280;45010;53.640;10.578;2022-10-31T05:46:16;101412.13;;;25.39;45.33
59240;BME280;45010;53.640;10.578;2022-10-31T05:49:16;101413.75;;;25.41;45.11
59240;BME280;45010;53.640;10.578;2022-10-31T05:52:17;101413.75;;;25.41;44.96
59240;BME280;45010;53.640;10.578;2022-10-31T05:55:17;101416.44;;;25.41;45.40
59240;BME280;45010;53.640;10.578;2022-10-31T05:58:18;101417.47;;;25.39;45.15
59240;BME280;45010;53.640;10.578;2022-10-31T06:01:18;101414.19;;;25.37;44.99
59240;BME280;45010;53.640;10.578;2022-10-31T06:04:18;101412.13;;;25.39;45.07
59240;BME280;45010;53.640;10.578;2022-10-31T06:07:18;101410.50;;;25.38;45.41
59240;BME280;45010;53.640;10.578;2022-10-31T06:10:19;101412.13;;;25.39;45.75
59240;BME280;45010;53.640;10.578;2022-10-31T06:13:21;101417.47;;;25.39;45.38
59240;BME280;45010;53.640;10.578;2022-10-31T06:16:21;101415.84;;;25.38;45.52
59240;BME280;45010;53.640;10.578;2022-10-31T06:19:21;101421.19;;;25.38;45.40
59240;BME280;45010;53.640;10.578;2022-10-31T06:22:22;101423.84;;;25.38;45.65
59240;BME280;45010;53.640;10.578;2022-10-31T06:25:22;101421.19;;;25.38;45.68
59240;BME280;45010;53.640;10.578;2022-10-31T06:28:22;101422.81;;;25.39;45.69
59240;BME280;45010;53.640;10.578;2022-10-31T06:31:23;101415.84;;;25.38;45.59
59240;BME280;45010;53.640;10.578;2022-10-31T06:34:23;101422.00;;;25.39;45.50
59240;BME280;45010;53.640;10.578;2022-10-31T06:37:23;101433.72;;;25.38;45.75
59240;BME280;45010;53.640;10.578;2022-10-31T06:40:24;101424.88;;;25.37;45.65
59240;BME280;45010;53.640;10.578;2022-10-31T06:43:24;101434.53;;;25.38;45.72
59240;BME280;45010;53.640;10.578;2022-10-31T06:46:24;101445.22;;;25.38;45.37
59240;BME280;45010;53.640;10.578;2022-10-31T06:49:25;101439.25;;;25.36;45.73
59240;BME280;45010;53.640;10.578;2022-10-31T06:52:25;101444.19;;;25.39;45.91
59240;BME280;45010;53.640;10.578;2022-10-31T06:55:26;101448.75;;;25.32;45.89
59240;BME280;45010;53.640;10.578;2022-10-31T06:58:26;101467.38;;;25.39;45.66
59240;BME280;45010;53.640;10.578;2022-10-31T07:01:27;101460.63;;;25.36;45.72
59240;BME280;45010;53.640;10.578;2022-10-31T07:04:27;101477.25;;;25.38;45.72
59240;BME280;45010;53.640;10.578;2022-10-31T07:07:27;101474.34;;;25.40;45.70
59240;BME280;45010;53.640;10.578;2022-10-31T07:10:30;101458.41;;;25.33;45.78
59240;BME280;45010;53.640;10.578;2022-10-31T07:13:30;101467.16;;;25.41;45.84
59240;BME280;45010;53.640;10.578;2022-10-31T07:16:30;101470.88;;;25.39;45.77
59240;BME280;45010;53.640;10.578;2022-10-31T07:19:31;101481.56;;;25.39;45.75
59240;BME280;45010;53.640;10.578;2022-10-31T07:22:35;101474.44;;;25.33;45.66
59240;BME280;45010;53.640;10.578;2022-10-31T07:25:37;101499.22;;;25.41;45.79
59240;BME280;45010;53.640;10.578;2022-10-31T07:28:37;101494.28;;;25.37;45.51
59240;BME280;45010;53.640;10.578;2022-10-31T07:31:38;101507.22;;;25.41;46.04
59240;BME280;45010;53.640;10.578;2022-10-31T07:34:38;101502.94;;;25.39;45.88
59240;BME280;45010;53.640;10.578;2022-10-31T07:37:38;101505.59;;;25.39;46.12
59240;BME280;45010;53.640;10.578;2022-10-31T07:40:40;101483.31;;;25.27;46.31
59240;BME280;45010;53.640;10.578;2022-10-31T07:43:40;101508.25;;;25.39;45.96
59240;BME280;45010;53.640;10.578;2022-10-31T07:46:41;101515.25;;;25.41;45.85
59240;BME280;45010;53.640;10.578;2022-10-31T07:49:41;101443.72;;;24.92;46.04
59240;BME280;45010;53.640;10.578;2022-10-31T07:52:42;101522.22;;;25.42;45.97
59240;BME280;45010;53.640;10.578;2022-10-31T07:55:43;101510.69;;;25.41;45.85
59240;BME280;45010;53.640;10.578;2022-10-31T07:58:43;101511.53;;;25.42;46.19
59240;BME280;45010;53.640;10.578;2022-10-31T08:01:44;101509.91;;;25.41;45.90
59240;BME280;45010;53.640;10.578;2022-10-31T08:04:44;101522.22;;;25.42;45.78
59240;BME280;45010;53.640;10.578;2022-10-31T08:07:44;101517.91;;;25.41;45.99
59240;BME280;45010;53.640;10.578;2022-10-31T08:10:44;101519.53;;;25.42;45.90
59240;BME280;45010;53.640;10.578;2022-10-31T08:13:46;101519.53;;;25.42;46.06
59240;BME280;45010;53.640;10.578;2022-10-31T08:16:46;101521.38;;;25.41;46.04
59240;BME280;45010;53.640;10.578;2022-10-31T08:19:46;101527.53;;;25.42;45.90
59240;BME280;45010;53.640;10.578;2022-10-31T08:22:58;101520.41;;;25.35;46.01
59240;BME280;45010;53.640;10.578;2022-10-31T08:25:58;101529.19;;;25.43;45.67
59240;BME280;45010;53.640;10.578;2022-10-31T08:28:58;101514.47;;;25.33;45.90
59240;BME280;45010;53.640;10.578;2022-10-31T08:31:59;101518.50;;;25.43;46.31
59240;BME280;45010;53.640;10.578;2022-10-31T08:34:59;101516.88;;;25.42;46.11
59240;BME280;45010;53.640;10.578;2022-10-31T08:37:59;101522.78;;;25.44;46.03
59240;BME280;45010;53.640;10.578;2022-10-31T08:41:00;101520.13;;;25.44;46.04
59240;BME280;45010;53.640;10.578;2022-10-31T08:44:00;101525.47;;;25.44;46.05
59240;BME280;45010;53.640;10.578;2022-10-31T08:47:01;101525.47;;;25.44;45.79
59240;BME280;45010;53.640;10.578;2022-10-31T08:50:01;101526.28;;;25.44;45.67
59240;BME280;45010;53.640;10.578;2022-10-31T08:53:07;101525.47;;;25.44;46.08
59240;BME280;45010;53.640;10.578;2022-10-31T08:56:07;101526.28;;;25.44;45.97
59240;BME280;45010;53.640;10.578;2022-10-31T08:59:08;101520.13;;;25.44;45.59
59240;BME280;45010;53.640;10.578;2022-10-31T09:02:08;101525.47;;;25.44;45.86
59240;BME280;45010;53.640;10.578;2022-10-31T09:05:08;101530.81;;;25.44;45.97
59240;BME280;45010;53.640;10.578;2022-10-31T09:08:09;101537.81;;;25.45;45.99
59240;BME280;45010;53.640;10.578;2022-10-31T09:11:09;101530.81;;;25.44;45.93
59240;BME280;45010;53.640;10.578;2022-10-31T09:14:09;101530.22;;;25.42;45.97
59240;BME280;45010;53.640;10.578;2022-10-31T09:17:10;101527.13;;;25.45;45.75
59240;BME280;45010;53.640;10.578;2022-10-31T09:20:10;101524.88;;;25.42;45.76
59240;BME280;45010;53.640;10.578;2022-10-31T09:23:12;101535.13;;;25.45;45.88
59240;BME280;45010;53.640;10.578;2022-10-31T09:26:13;101526.28;;;25.44;45.58
59240;BME280;45010;53.640;10.578;2022-10-31T09:29:13;101518.50;;;25.43;45.84
59240;BME280;45010;53.640;10.578;2022-10-31T09:32:14;101522.59;;;25.45;45.96
59240;BME280;45010;53.640;10.578;2022-10-31T09:35:14;101528.75;;;25.46;45.92
59240;BME280;45010;53.640;10.578;2022-10-31T09:38:17;101515.25;;;25.41;46.11
59240;BME280;45010;53.640;10.578;2022-10-31T09:48:20;101517.63;;;25.49;46.17
59240;BME280;45010;53.640;10.578;2022-10-31T09:51:44;101519.88;;;25.52;46.25
59240;BME280;45010;53.640;10.578;2022-10-31T09:54:57;101525.41;;;25.57;46.35
59240;BME280;45010;53.640;10.578;2022-10-31T09:57:59;101509.00;;;25.54;46.14
59240;BME280;45010;53.640;10.578;2022-10-31T10:01:02;101497.13;;;25.43;46.35
59240;BME280;45010;53.640;10.578;2022-10-31T10:23:55;101545.78;;;25.77;46.33
59240;BME280;45010;53.640;10.578;2022-10-31T10:27:25;101548.00;;;25.80;46.16
59240;BME280;45010;53.640;10.578;2022-10-31T10:30:45;101545.34;;;25.80;46.22
59240;BME280;45010;53.640;10.578;2022-10-31T10:34:02;101524.41;;;25.77;46.26
59240;BME280;45010;53.640;10.578;2022-10-31T10:40:20;101532.13;;;25.85;46.26
59240;BME280;45010;53.640;10.578;2022-10-31T10:46:34;101531.72;;;25.88;46.15
59240;BME280;45010;53.640;10.578;2022-10-31T10:50:00;101537.66;;;25.90;46.10
59240;BME280;45010;53.640;10.578;2022-10-31T10:53:27;101532.69;;;25.94;46.06
59240;BME280;45010;53.640;10.578;2022-10-31T10:56:54;101525.50;;;25.95;45.83
59240;BME280;45010;53.640;10.578;2022-10-31T11:00:00;101506.19;;;25.92;45.66
59240;BME280;45010;53.640;10.578;2022-10-31T11:03:02;101503.94;;;25.89;45.60
59240;BME280;45010;53.640;10.578;2022-10-31T11:06:03;101512.72;;;25.97;46.00
59240;BME280;45010;53.640;10.578;2022-10-31T11:09:09;101473.44;;;25.78;45.96
59240;BME280;45010;53.640;10.578;2022-10-31T11:12:19;101506.94;;;26.00;45.96
59240;BME280;45010;53.640;10.578;2022-10-31T11:15:22;101493.41;;;25.95;45.87
59240;BME280;45010;53.640;10.578;2022-10-31T11:18:26;101473.34;;;25.85;45.54
59240;BME280;45010;53.640;10.578;2022-10-31T11:21:29;101500.09;;;26.04;45.72
59240;BME280;45010;53.640;10.578;2022-10-31T11:24:29;101499.06;;;26.05;45.59
59240;BME280;45010;53.640;10.578;2022-10-31T11:27:30;101498.03;;;26.06;45.70
59240;BME280;45010;53.640;10.578;2022-10-31T11:30:36;101473.72;;;25.89;45.45
59240;BME280;45010;53.640;10.578;2022-10-31T11:33:48;101504.78;;;26.09;45.58
59240;BME280;45010;53.640;10.578;2022-10-31T11:36:49;101504.78;;;26.09;45.47
59240;BME280;45010;53.640;10.578;2022-10-31T11:39:55;101487.75;;;26.03;45.25
59240;BME280;45010;53.640;10.578;2022-10-31T11:42:57;101503.97;;;26.08;45.56
59240;BME280;45010;53.640;10.578;2022-10-31T11:45:59;101487.19;;;26.01;45.19
59240;BME280;45010;53.640;10.578;2022-10-31T11:48:59;101506.41;;;26.10;45.28
59240;BME280;45010;53.640;10.578;2022-10-31T11:52:05;101476.34;;;25.96;45.32
59240;BME280;45010;53.640;10.578;2022-10-31T11:58:24;101475.22;;;26.03;45.50
59240;BME280;45010;53.640;10.578;2022-10-31T12:01:27;101483.41;;;26.09;45.52
59240;BME280;45010;53.640;10.578;2022-10-31T12:07:37;101469.78;;;26.10;45.19
59240;BME280;45010;53.640;10.578;2022-10-31T12:10:58;101490.38;;;26.10;45.48
59240;BME280;45010;53.640;10.578;2022-10-31T12:17:16;101474.88;;;26.00;45.24
59240;BME280;45010;53.640;10.578;2022-10-31T12:20:30;101479.69;;;26.10;45.35
59240;BME280;45010;53.640;10.578;2022-10-31T12:23:57;101477.22;;;26.08;45.29
59240;BME280;45010;53.640;10.578;2022-10-31T12:27:23;101468.38;;;26.08;45.33
59240;BME280;45010;53.640;10.578;2022-10-31T12:30:46;101467.44;;;26.02;45.07
59240;BME280;45010;53.640;10.578;2022-10-31T12:37:06;101465.34;;;26.04;45.14
59240;BME280;45010;53.640;10.578;2022-10-31T12:40:36;101463.72;;;26.03;45.33
59240;BME280;45010;53.640;10.578;2022-10-31T12:53:35;101448.13;;;26.00;45.50
59240;BME280;45010;53.640;10.578;2022-10-31T12:59:59;101442.78;;;26.00;45.48
59240;BME280;45010;53.640;10.578;2022-10-31T13:03:15;101446.19;;;26.07;45.29
59240;BME280;45010;53.640;10.578;2022-10-31T13:06:25;101441.91;;;26.06;45.29
59240;BME280;45010;53.640;10.578;2022-10-31T13:09:42;101437.19;;;26.01;45.05
59240;BME280;45010;53.640;10.578;2022-10-31T13:12:48;101449.75;;;26.01;45.38
59240;BME280;45010;53.640;10.578;2022-10-31T13:15:53;101444.63;;;25.99;45.12
59240;BME280;45010;53.640;10.578;2022-10-31T13:19:00;101452.59;;;26.06;45.51
59240;BME280;45010;53.640;10.578;2022-10-31T13:22:29;101442.78;;;26.00;45.41
59240;BME280;45010;53.640;10.578;2022-10-31T13:25:36;101448.88;;;26.07;45.22
59240;BME280;45010;53.640;10.578;2022-10-31T13:28:57;101416.81;;;25.88;44.97
59240;BME280;45010;53.640;10.578;2022-10-31T13:32:04;101437.59;;;26.05;45.08
59240;BME280;45010;53.640;10.578;2022-10-31T13:35:10;101438.19;;;26.07;45.34
59240;BME280;45010;53.640;10.578;2022-10-31T13:38:36;101420.56;;;25.99;45.22
59240;BME280;45010;53.640;10.578;2022-10-31T13:41:54;101425.03;;;26.05;45.13
59240;BME280;45010;53.640;10.578;2022-10-31T13:45:22;101424.22;;;26.05;44.84
59240;BME280;45010;53.640;10.578;2022-10-31T13:48:39;101426.91;;;26.05;45.02
59240;BME280;45010;53.640;10.578;2022-10-31T13:51:42;101426.28;;;26.03;45.20
59240;BME280;45010;53.640;10.578;2022-10-31T13:54:45;101427.13;;;26.03;45.05
59240;BME280;45010;53.640;10.578;2022-10-31T13:57:46;101423.63;;;26.03;45.32
59240;BME280;45010;53.640;10.578;2022-10-31T14:01:12;101413.81;;;25.97;45.00
59240;BME280;45010;53.640;10.578;2022-10-31T14:04:18;101413.97;;;26.02;45.25
59240;BME280;45010;53.640;10.578;2022-10-31T14:07:22;101398.84;;;25.96;45.05
59240;BME280;45010;53.640;10.578;2022-10-31T14:10:27;101403.28;;;26.02;45.01
59240;BME280;45010;53.640;10.578;2022-10-31T14:13:34;101388.88;;;26.03;45.24
59240;BME280;45010;53.640;10.578;2022-10-31T14:16:38;101379.06;;;25.97;44.87
59240;BME280;45010;53.640;10.578;2022-10-31T14:19:40;101388.06;;;26.02;45.23
59240;BME280;45010;53.640;10.578;2022-10-31T14:22:40;101379.28;;;25.95;45.35
59240;BME280;45010;53.640;10.578;2022-10-31T14:25:41;101375.81;;;25.95;44.82
59240;BME280;45010;53.640;10.578;2022-10-31T14:28:41;101384.00;;;26.00;44.86
59240;BME280;45010;53.640;10.578;2022-10-31T14:31:44;101388.50;;;25.99;45.16
59240;BME280;45010;53.640;10.578;2022-10-31T14:44:32;101366.53;;;25.97;45.10
59240;BME280;45010;53.640;10.578;2022-10-31T14:50:57;101350.59;;;25.90;45.48
59240;BME280;45010;53.640;10.578;2022-10-31T14:53:59;101340.94;;;25.89;45.11
59240;BME280;45010;53.640;10.578;2022-10-31T14:57:04;101349.91;;;25.95;45.35
59240;BME280;45010;53.640;10.578;2022-10-31T15:00:12;101349.91;;;25.95;44.83
59240;BME280;45010;53.640;10.578;2022-10-31T15:03:24;101335.59;;;25.89;44.83
59240;BME280;45010;53.640;10.578;2022-10-31T15:06:31;101342.13;;;25.94;44.81
59240;BME280;45010;53.640;10.578;2022-10-31T15:09:37;101335.97;;;25.93;45.16
59240;BME280;45010;53.640;10.578;2022-10-31T15:12:43;101325.25;;;25.93;44.84
59240;BME280;45010;53.640;10.578;2022-10-31T15:15:44;101321.53;;;25.94;44.98
59240;BME280;45010;53.640;10.578;2022-10-31T15:18:52;101318.06;;;25.94;44.94
59240;BME280;45010;53.640;10.578;2022-10-31T15:21:55;101295.84;;;25.81;44.99
59240;BME280;45010;53.640;10.578;2022-10-31T15:24:56;101311.09;;;25.92;45.20
59240;BME280;45010;53.640;10.578;2022-10-31T15:27:56;101313.78;;;25.92;45.42
59240;BME280;45010;53.640;10.578;2022-10-31T15:30:59;101305.00;;;25.85;45.11
59240;BME280;45010;53.640;10.578;2022-10-31T15:34:17;101308.44;;;25.92;44.95
59240;BME280;45010;53.640;10.578;2022-10-31T15:37:21;101290.84;;;25.85;44.93
59240;BME280;45010;53.640;10.578;2022-10-31T15:40:24;101288.41;;;25.83;44.88
59240;BME280;45010;53.640;10.578;2022-10-31T15:43:27;101308.88;;;25.89;45.44
59240;BME280;45010;53.640;10.578;2022-10-31T15:46:27;101346.28;;;25.89;45.27
59240;BME280;45010;53.640;10.578;2022-10-31T15:49:35;101356.97;;;25.89;45.58
59240;BME280;45010;53.640;10.578;2022-10-31T15:52:42;101342.66;;;25.84;45.24
59240;BME280;45010;53.640;10.578;2022-10-31T15:55:53;101347.13;;;25.90;45.00
59240;BME280;45010;53.640;10.578;2022-10-31T15:58:56;101326.75;;;25.89;45.41
59240;BME280;45010;53.640;10.578;2022-10-31T16:02:02;101307.78;;;25.78;45.07
59240;BME280;45010;53.640;10.578;2022-10-31T16:05:16;101226.91;;;25.34;45.25
59240;BME280;45010;53.640;10.578;2022-10-31T16:08:33;101303.53;;;25.89;45.00
59240;BME280;45010;53.640;10.578;2022-10-31T16:11:38;101301.06;;;25.88;45.28
59240;BME280;45010;53.640;10.578;2022-10-31T16:14:39;101294.94;;;25.87;45.27
59240;BME280;45010;53.640;10.578;2022-10-31T16:17:43;101286.91;;;25.87;45.21
59240;BME280;45010;53.640;10.578;2022-10-31T16:20:53;101278.91;;;25.87;45.15
59240;BME280;45010;53.640;10.578;2022-10-31T16:23:59;101279.91;;;25.86;45.17
59240;BME280;45010;53.640;10.578;2022-10-31T16:27:17;101276.09;;;25.82;45.13
59240;BME280;45010;53.640;10.578;2022-10-31T16:30:37;101289.59;;;25.87;45.08
59240;BME280;45010;53.640;10.578;2022-10-31T16:33:38;101285.88;;;25.88;44.93
59240;BME280;45010;53.640;10.578;2022-10-31T16:36:40;101281.56;;;25.87;45.06
59240;BME280;45010;53.640;10.578;2022-10-31T16:39:41;101272.72;;;25.87;45.15
59240;BME280;45010;53.640;10.578;2022-10-31T16:42:43;101253.88;;;25.82;45.53
59240;BME280;45010;53.640;10.578;2022-10-31T16:45:48;101252.19;;;25.87;45.63
59240;BME280;45010;53.640;10.578;2022-10-31T16:48:49;101265.28;;;25.89;45.66
59240;BME280;45010;53.640;10.578;2022-10-31T16:51:49;101241.25;;;25.89;45.43
59240;BME280;45010;53.640;10.578;2022-10-31T16:54:50;101242.06;;;25.89;45.77
59240;BME280;45010;53.640;10.578;2022-10-31T16:57:52;101241.03;;;25.90;46.02
59240;BME280;45010;53.640;10.578;2022-10-31T17:00:53;101236.16;;;25.87;46.10
59240;BME280;45010;53.640;10.578;2022-10-31T17:03:53;101239.75;;;25.93;46.11
59240;BME280;45010;53.640;10.578;2022-10-31T17:06:54;101242.66;;;25.91;46.16
59240;BME280;45010;53.640;10.578;2022-10-31T17:09:54;101242.66;;;25.91;46.06
59240;BME280;45010;53.640;10.578;2022-10-31T17:12:55;101243.69;;;25.90;46.38
59240;BME280;45010;53.640;10.578;2022-10-31T17:15:58;101220.19;;;25.81;46.68
59240;BME280;45010;53.640;10.578;2022-10-31T17:18:59;101232.41;;;25.88;47.04
59240;BME280;45010;53.640;10.578;2022-10-31T17:22:01;101230.78;;;25.87;46.79
59240;BME280;45010;53.640;10.578;2022-10-31T17:25:01;101226.47;;;25.86;47.25